createdAt,value
2023-01-09T00:01:31.385Z,72.15
2023-01-09T00:03:59.171Z,71.70
2023-01-09T00:06:27.326Z,70.05
2023-01-09T00:08:55.172Z,66.78
2023-01-09T00:11:23.265Z,73.47
2023-01-09T00:13:50.946Z,67.78
2023-01-09T00:16:19.555Z,73.22
2023-01-09T00:18:47.216Z,67.43
2023-01-09T00:21:15.648Z,70.32
2023-01-09T00:23:43.340Z,71.78
2023-01-09T00:26:14.428Z,66.70
2023-01-09T00:28:42.094Z,65.97
2023-01-09T00:31:10.845Z,63.65
2023-01-09T00:34:06.884Z,67.88
2023-01-09T00:36:34.990Z,71.78
2023-01-09T00:39:02.771Z,69.00
2023-01-09T00:41:40.087Z,65.68
2023-01-09T00:44:22.288Z,67.00
2023-01-09T00:46:55.552Z,71.65
2023-01-09T00:49:23.599Z,67.97
2023-01-09T00:51:52.222Z,66.90
2023-01-09T00:54:20.423Z,68.05
2023-01-09T00:56:49.226Z,66.70
2023-01-09T00:59:16.905Z,63.55
2023-01-09T01:01:44.884Z,65.43
2023-01-09T01:04:31.148Z,63.80
2023-01-09T01:07:22.322Z,62.80
2023-01-09T01:09:50.040Z,65.15
2023-01-09T01:12:18.015Z,66.22
2023-01-09T01:14:45.598Z,67.07
2023-01-09T01:17:13.478Z,63.13
2023-01-09T01:19:41.163Z,62.38
2023-01-09T01:22:09.196Z,60.03
2023-01-09T01:24:36.870Z,65.97
2023-01-09T01:27:04.877Z,64.90
2023-01-09T01:29:32.587Z,60.75
2023-01-09T01:32:00.506Z,62.55
2023-01-09T01:34:29.907Z,64.85
2023-01-09T01:36:57.797Z,62.60
2023-01-09T01:39:25.442Z,62.85
2023-01-09T01:41:53.377Z,60.35
2023-01-09T01:44:59.672Z,58.33
2023-01-09T01:47:49.330Z,55.90
2023-01-09T01:50:35.329Z,53.42
2023-01-09T01:53:12.001Z,56.85
2023-01-09T01:55:47.064Z,48.97
2023-01-09T01:58:15.910Z,55.13
2023-01-09T02:00:46.774Z,61.78
2023-01-09T02:03:19.595Z,58.22
2023-01-09T02:05:47.391Z,62.65
2023-01-09T02:08:15.877Z,56.35
2023-01-09T02:10:44.893Z,57.05
2023-01-09T02:13:13.806Z,55.15
2023-01-09T02:16:18.373Z,56.88
2023-01-09T02:21:39.351Z,53.70
2023-01-09T02:24:23.872Z,55.40
2023-01-09T02:29:45.091Z,51.20
2023-01-09T02:32:24.932Z,58.42
2023-01-09T02:35:11.866Z,53.42
2023-01-09T02:38:09.730Z,58.03
2023-01-09T02:40:52.543Z,50.15
2023-01-09T02:43:20.864Z,53.83
2023-01-09T02:45:48.867Z,51.50
2023-01-09T02:48:16.558Z,52.50
2023-01-09T02:51:08.045Z,50.60
2023-01-09T02:54:02.542Z,52.42
2023-01-09T02:56:54.959Z,54.63
2023-01-09T02:59:34.535Z,56.00
2023-01-09T03:02:16.965Z,51.53
2023-01-09T03:04:59.390Z,55.63
2023-01-09T03:07:45.379Z,48.20
2023-01-09T03:10:32.952Z,54.72
2023-01-09T03:13:03.284Z,51.35
2023-01-09T03:15:35.197Z,53.40
2023-01-09T03:18:06.186Z,49.17
2023-01-09T03:20:34.747Z,49.08
2023-01-09T03:23:04.838Z,50.13
2023-01-09T03:25:33.155Z,51.38
2023-01-09T03:28:03.601Z,49.60
2023-01-09T03:30:32.933Z,47.50
2023-01-09T03:33:00.907Z,47.28
2023-01-09T03:35:28.810Z,48.15
2023-01-09T03:37:56.734Z,52.13
2023-01-09T03:40:24.410Z,52.50
2023-01-09T03:42:52.354Z,47.80
2023-01-09T03:45:20.153Z,51.25
2023-01-09T03:47:48.223Z,52.00
2023-01-09T03:50:16.059Z,49.60
2023-01-09T03:52:43.996Z,50.08
2023-01-09T03:55:11.941Z,50.03
2023-01-09T03:57:39.869Z,51.15
2023-01-09T04:00:08.580Z,48.00
2023-01-09T04:02:45.403Z,48.92
2023-01-09T04:05:13.799Z,48.53
2023-01-09T04:07:41.772Z,49.67
2023-01-09T04:10:11.648Z,45.45
2023-01-09T04:12:39.872Z,45.38
2023-01-09T04:15:07.941Z,47.63
2023-01-09T04:17:35.836Z,48.55
2023-01-09T04:20:04.004Z,48.00
2023-01-09T04:22:32.090Z,48.38
2023-01-09T04:24:59.767Z,49.25
2023-01-09T04:27:27.687Z,48.25
2023-01-09T04:29:55.333Z,49.50
2023-01-09T04:32:23.272Z,48.10
2023-01-09T04:34:50.891Z,47.67
2023-01-09T04:37:18.822Z,46.97
2023-01-09T04:39:46.540Z,45.25
2023-01-09T04:42:14.516Z,44.65
2023-01-09T04:44:42.298Z,45.80
2023-01-09T04:47:10.277Z,49.00
2023-01-09T04:49:37.957Z,51.53
2023-01-09T04:52:06.393Z,50.20
2023-01-09T04:54:34.601Z,51.72
2023-01-09T04:57:02.535Z,52.58
2023-01-09T04:59:30.188Z,46.85
2023-01-09T05:01:59.451Z,43.22
2023-01-09T05:04:27.322Z,46.10
2023-01-09T05:06:55.368Z,47.10
2023-01-09T05:09:23.146Z,48.08
2023-01-09T05:11:51.202Z,46.03
2023-01-09T05:14:19.159Z,43.25
2023-01-09T05:16:47.159Z,47.00
2023-01-09T05:19:15.073Z,44.63
2023-01-09T05:21:43.006Z,46.90
2023-01-09T05:24:10.583Z,43.58
2023-01-09T05:26:38.520Z,56.65
2023-01-09T05:29:06.121Z,43.45
2023-01-09T05:31:34.107Z,43.25
2023-01-09T05:34:01.959Z,42.90
2023-01-09T05:36:30.004Z,47.95
2023-01-09T05:39:02.620Z,44.58
2023-01-09T05:41:30.664Z,41.15
2023-01-09T05:43:58.487Z,42.00
2023-01-09T05:46:26.380Z,42.58
2023-01-09T05:48:54.039Z,44.13
2023-01-09T05:51:22.181Z,43.08
2023-01-09T05:53:50.305Z,41.03
2023-01-09T05:56:18.370Z,43.28
2023-01-09T05:58:46.018Z,42.15
2023-01-09T06:01:13.938Z,41.35
2023-01-09T06:03:41.687Z,40.88
2023-01-09T06:06:09.609Z,40.92
2023-01-09T06:08:37.235Z,42.78
2023-01-09T06:11:05.213Z,38.80
2023-01-09T06:13:32.959Z,44.58
2023-01-09T06:16:00.887Z,43.63
2023-01-09T06:18:28.512Z,47.67
2023-01-09T06:20:56.434Z,43.78
2023-01-09T06:23:24.116Z,44.03
2023-01-09T06:25:51.975Z,43.67
2023-01-09T06:28:19.647Z,47.70
2023-01-09T06:30:52.337Z,48.20
2023-01-09T06:33:20.592Z,51.78
2023-01-09T06:35:48.482Z,44.42
2023-01-09T06:38:16.150Z,43.78
2023-01-09T06:40:44.094Z,47.17
2023-01-09T06:43:11.720Z,47.67
2023-01-09T06:45:39.711Z,50.60
2023-01-09T06:48:07.488Z,55.10
2023-01-09T06:50:35.587Z,55.00
2023-01-09T06:53:03.819Z,51.00
2023-01-09T06:55:31.710Z,56.90
2023-01-09T06:57:59.315Z,57.17
2023-01-09T07:00:27.366Z,51.90
2023-01-09T07:02:54.997Z,51.67
2023-01-09T07:05:23.272Z,49.42
2023-01-09T07:07:51.454Z,51.33
2023-01-09T07:10:19.592Z,49.00
2023-01-09T07:12:47.344Z,48.10
2023-01-09T07:15:15.344Z,45.20
2023-01-09T07:17:43.021Z,46.78
2023-01-09T07:20:11.480Z,40.65
2023-01-09T07:22:39.209Z,39.58
2023-01-09T07:25:07.514Z,42.63
2023-01-09T07:27:35.259Z,43.63
2023-01-09T07:30:04.102Z,38.92
2023-01-09T07:32:32.581Z,38.17
2023-01-09T07:35:00.508Z,40.85
2023-01-09T07:37:28.218Z,34.47
2023-01-09T07:39:56.172Z,42.72
2023-01-09T07:42:23.786Z,44.45
2023-01-09T07:44:51.773Z,40.20
2023-01-09T07:47:19.382Z,44.13
2023-01-09T07:49:47.337Z,41.10
2023-01-09T07:52:15.172Z,44.35
2023-01-09T07:54:43.158Z,38.85
2023-01-09T07:57:10.768Z,44.40
2023-01-09T07:59:38.646Z,44.83
2023-01-09T08:02:07.268Z,43.42
2023-01-09T08:04:35.272Z,41.92
2023-01-09T08:07:03.423Z,43.10
2023-01-09T08:09:31.424Z,40.97
2023-01-09T08:11:59.076Z,40.63
2023-01-09T08:14:27.026Z,32.83
2023-01-09T08:16:54.619Z,38.22
2023-01-09T08:19:22.691Z,35.95
2023-01-09T08:21:50.748Z,34.22
2023-01-09T08:24:18.775Z,35.80
2023-01-09T08:26:46.626Z,33.33
2023-01-09T08:29:14.727Z,34.92
2023-01-09T08:31:42.557Z,33.42
2023-01-09T08:34:10.511Z,35.80
2023-01-09T08:36:38.115Z,33.88
2023-01-09T08:39:06.082Z,33.90
2023-01-09T08:41:52.361Z,34.92
2023-01-09T08:44:38.861Z,32.80
2023-01-09T08:47:06.749Z,31.65
2023-01-09T08:49:39.013Z,30.75
2023-01-09T08:52:07.823Z,26.52
2023-01-09T08:54:38.966Z,31.05
2023-01-09T08:57:07.819Z,36.25
2023-01-09T08:59:36.888Z,33.33
2023-01-09T09:02:04.651Z,30.25
2023-01-09T09:04:32.558Z,36.28
2023-01-09T09:07:00.237Z,34.70
2023-01-09T09:09:28.147Z,37.10
2023-01-09T09:11:55.889Z,30.92
2023-01-09T09:14:42.547Z,34.97
2023-01-09T09:17:10.285Z,31.77
2023-01-09T09:19:39.611Z,30.80
2023-01-09T09:22:07.327Z,34.63
2023-01-09T09:24:35.201Z,31.60
2023-01-09T09:27:03.317Z,33.15
2023-01-09T09:29:31.187Z,35.50
2023-01-09T09:32:00.827Z,33.38
2023-01-09T09:34:28.964Z,33.33
2023-01-09T09:36:56.619Z,37.08
2023-01-09T09:39:24.559Z,34.97
2023-01-09T09:42:22.526Z,35.33
2023-01-09T09:45:03.456Z,34.55
2023-01-09T09:47:43.571Z,33.10
2023-01-09T09:50:17.641Z,32.15
2023-01-09T09:53:08.471Z,33.13
2023-01-09T09:55:40.187Z,34.42
2023-01-09T09:58:32.082Z,33.40
2023-01-09T10:01:01.552Z,34.63
2023-01-09T10:03:50.362Z,28.92
2023-01-09T10:06:38.270Z,34.65
2023-01-09T10:09:57.611Z,33.25
2023-01-09T10:12:29.610Z,33.72
2023-01-09T10:15:17.856Z,28.92
2023-01-09T10:18:10.095Z,29.63
2023-01-09T10:20:53.035Z,33.40
2023-01-09T10:23:49.735Z,32.50
2023-01-09T10:26:41.864Z,33.15
2023-01-09T10:29:47.953Z,30.63
2023-01-09T10:32:37.606Z,35.05
2023-01-09T10:35:48.143Z,32.30
2023-01-09T10:38:33.884Z,35.58
2023-01-09T10:41:20.946Z,33.03
2023-01-09T10:44:15.369Z,35.28
2023-01-09T10:49:24.220Z,37.78
2023-01-09T10:52:05.429Z,39.28
2023-01-09T10:54:33.174Z,38.38
2023-01-09T10:57:14.608Z,36.60
2023-01-09T10:59:43.029Z,34.90
2023-01-09T11:02:33.513Z,40.08
2023-01-09T11:05:01.482Z,44.00
2023-01-09T11:07:39.421Z,46.05
2023-01-09T11:10:11.838Z,39.78
2023-01-09T11:12:40.431Z,44.13
2023-01-09T11:15:19.465Z,39.25
2023-01-09T11:17:50.513Z,41.53
2023-01-09T11:20:36.523Z,51.10
2023-01-09T11:23:04.615Z,44.58
2023-01-09T11:25:32.257Z,47.03
2023-01-09T11:28:02.955Z,48.30
2023-01-09T11:30:34.106Z,41.50
2023-01-09T11:33:13.783Z,42.22
2023-01-09T11:35:56.165Z,43.53
2023-01-09T11:38:24.230Z,42.00
2023-01-09T11:41:04.210Z,45.13
2023-01-09T11:43:44.962Z,41.58
2023-01-09T11:46:41.929Z,43.00
2023-01-09T11:49:25.060Z,43.67
2023-01-09T11:52:20.588Z,43.63
2023-01-09T11:54:59.930Z,47.78
2023-01-09T11:57:28.025Z,45.15
2023-01-09T12:00:06.027Z,43.03
2023-01-09T12:03:14.693Z,40.53
2023-01-09T12:05:42.693Z,46.72
2023-01-09T12:08:28.805Z,41.78
2023-01-09T12:11:10.825Z,39.83
2023-01-09T12:14:06.059Z,46.50
2023-01-09T12:16:58.791Z,42.83
2023-01-09T12:20:01.224Z,43.78
2023-01-09T12:22:44.451Z,44.80
2023-01-09T12:25:22.011Z,46.08
2023-01-09T12:28:03.261Z,47.45
2023-01-09T12:30:52.130Z,45.25
2023-01-09T12:33:44.786Z,47.28
2023-01-09T12:36:27.806Z,55.25
2023-01-09T12:39:08.165Z,54.53
2023-01-09T12:41:44.858Z,53.60
2023-01-09T12:44:50.355Z,54.45
2023-01-09T12:47:36.865Z,51.20
2023-01-09T12:50:23.249Z,48.88
2023-01-09T12:53:06.839Z,50.28
2023-01-09T12:55:40.601Z,45.50
2023-01-09T12:59:05.426Z,53.70
2023-01-09T13:01:46.631Z,55.97
2023-01-09T13:04:30.630Z,51.05
2023-01-09T13:09:45.872Z,68.93
2023-01-09T13:12:21.698Z,64.15
2023-01-09T13:15:00.778Z,49.38
2023-01-09T13:17:32.011Z,50.72
2023-01-09T13:19:59.650Z,49.70
2023-01-09T13:22:29.818Z,53.28
2023-01-09T13:25:20.012Z,47.42
2023-01-09T13:27:58.489Z,44.13
2023-01-09T13:30:52.309Z,53.00
2023-01-09T13:35:54.024Z,47.28
2023-01-09T13:38:28.535Z,48.13
2023-01-09T13:41:32.839Z,53.85
2023-01-09T13:44:24.347Z,55.50
2023-01-09T13:46:59.224Z,52.65
2023-01-09T13:49:40.297Z,53.75
2023-01-09T13:52:33.018Z,48.97
2023-01-09T13:55:04.096Z,46.72
2023-01-09T13:57:38.404Z,48.58
2023-01-09T14:00:15.420Z,49.20
2023-01-09T14:02:44.932Z,49.58
2023-01-09T14:05:12.928Z,56.55
2023-01-09T14:07:42.533Z,52.05
2023-01-09T14:10:34.621Z,58.55
2023-01-09T14:13:12.605Z,58.85
2023-01-09T14:15:44.915Z,54.75
2023-01-09T14:18:34.769Z,56.08
2023-01-09T14:24:04.479Z,53.13
2023-01-09T14:26:46.094Z,60.70
2023-01-09T14:29:40.236Z,55.60
2023-01-09T14:32:23.327Z,55.72
2023-01-09T14:35:08.780Z,54.72
2023-01-09T14:37:40.078Z,52.97
2023-01-09T14:40:19.385Z,60.35
2023-01-09T14:42:51.875Z,53.03
2023-01-09T14:45:23.512Z,49.42
2023-01-09T14:48:11.222Z,49.72
2023-01-09T14:50:45.152Z,50.83
2023-01-09T14:53:18.364Z,45.05
2023-01-09T14:55:57.947Z,46.88
2023-01-09T14:58:37.890Z,59.70
2023-01-09T15:01:18.913Z,61.92
2023-01-09T15:03:51.534Z,53.42
2023-01-09T15:06:25.559Z,50.75
2023-01-09T15:09:08.438Z,50.92
2023-01-09T15:11:39.938Z,48.63
2023-01-09T15:14:14.100Z,55.33
2023-01-09T15:16:45.801Z,42.22
2023-01-09T15:19:15.351Z,45.85
2023-01-09T15:22:04.679Z,45.42
2023-01-09T15:24:34.619Z,40.97
2023-01-09T15:27:13.074Z,43.78
2023-01-09T15:29:41.647Z,42.30
2023-01-09T15:32:24.911Z,42.88
2023-01-09T15:34:54.786Z,44.00
2023-01-09T15:37:30.467Z,39.00
2023-01-09T15:40:01.708Z,44.15
2023-01-09T15:42:52.542Z,40.35
2023-01-09T15:45:34.053Z,39.90
2023-01-09T15:48:20.612Z,42.95
2023-01-09T15:50:51.128Z,35.88
2023-01-09T15:53:21.508Z,39.05
2023-01-09T15:56:20.307Z,37.97
2023-01-09T15:58:50.110Z,40.00
2023-01-09T16:01:18.066Z,37.85
2023-01-09T16:03:45.866Z,36.00
2023-01-09T16:06:28.989Z,37.10
2023-01-09T16:08:59.330Z,38.63
2023-01-09T16:11:33.243Z,33.90
2023-01-09T16:14:16.502Z,34.85
2023-01-09T16:16:46.133Z,39.03
2023-01-09T16:19:49.996Z,36.80
2023-01-09T16:22:29.835Z,38.42
2023-01-09T16:25:02.544Z,38.53
2023-01-09T16:27:33.539Z,39.17
2023-01-09T16:30:03.300Z,37.63
2023-01-09T16:32:31.479Z,34.63
2023-01-09T16:35:06.436Z,38.13
2023-01-09T16:37:36.040Z,37.22
2023-01-09T16:40:12.664Z,33.88
2023-01-09T16:42:59.666Z,38.15
2023-01-09T16:45:28.762Z,35.25
2023-01-09T16:47:58.110Z,40.25
2023-01-09T16:50:26.392Z,36.60
2023-01-09T16:52:55.833Z,38.47
2023-01-09T16:55:23.636Z,38.28
2023-01-09T16:57:51.887Z,39.05
2023-01-09T17:00:21.247Z,35.90
2023-01-09T17:02:49.286Z,38.05
2023-01-09T17:05:17.118Z,43.72
2023-01-09T17:07:45.102Z,36.00
2023-01-09T17:10:22.891Z,40.13
2023-01-09T17:12:50.892Z,38.90
2023-01-09T17:15:18.686Z,40.38
2023-01-09T17:17:46.646Z,35.22
2023-01-09T17:20:19.285Z,36.20
2023-01-09T17:22:47.282Z,39.35
2023-01-09T17:25:34.516Z,40.75
2023-01-09T17:28:22.333Z,41.88
2023-01-09T17:30:50.161Z,45.15
2023-01-09T17:33:19.213Z,37.40
2023-01-09T17:35:47.035Z,40.85
2023-01-09T17:38:16.179Z,40.97
2023-01-09T17:40:44.625Z,40.28
2023-01-09T17:43:13.408Z,43.03
2023-01-09T17:45:42.266Z,43.03
2023-01-09T17:48:21.834Z,39.03
2023-01-09T17:50:50.100Z,43.78
2023-01-09T17:53:20.695Z,41.35
2023-01-09T17:55:48.555Z,42.85
2023-01-09T17:58:26.107Z,45.45
2023-01-09T18:00:53.871Z,42.72
2023-01-09T18:03:23.279Z,47.00
2023-01-09T18:05:51.233Z,44.38
2023-01-09T18:08:19.190Z,48.35
2023-01-09T18:10:48.561Z,48.45
2023-01-09T18:13:17.616Z,52.50
2023-01-09T18:15:46.570Z,57.78
2023-01-09T18:18:16.176Z,49.78
2023-01-09T18:20:45.508Z,53.83
2023-01-09T18:23:14.004Z,53.15
2023-01-09T18:25:43.110Z,62.15
2023-01-09T18:28:15.293Z,55.40
2023-01-09T18:30:47.747Z,52.83
2023-01-09T18:33:16.194Z,54.30
2023-01-09T18:35:44.980Z,54.90
2023-01-09T18:38:13.819Z,53.50
2023-01-09T18:40:41.942Z,59.22
2023-01-09T18:43:11.484Z,55.22
2023-01-09T18:45:39.457Z,60.42
2023-01-09T18:48:07.935Z,59.03
2023-01-09T18:50:35.702Z,51.95
2023-01-09T18:53:03.719Z,55.63
2023-01-09T18:55:31.383Z,54.53
2023-01-09T18:57:59.447Z,52.08
2023-01-09T19:00:27.129Z,55.05
2023-01-09T19:02:55.081Z,54.95
2023-01-09T19:05:23.367Z,59.10
2023-01-09T19:07:51.526Z,58.85
2023-01-09T19:10:19.392Z,58.20
2023-01-09T19:12:47.379Z,56.28
2023-01-09T19:15:15.000Z,59.45
2023-01-09T19:17:43.034Z,52.45
2023-01-09T19:20:11.383Z,55.90
2023-01-09T19:22:39.308Z,57.28
2023-01-09T19:25:07.296Z,56.40
2023-01-09T19:27:35.314Z,57.28
2023-01-09T19:30:03.247Z,60.88
2023-01-09T19:32:31.335Z,56.35
2023-01-09T19:34:58.949Z,60.47
2023-01-09T19:37:26.937Z,58.22
2023-01-09T19:39:54.596Z,53.45
2023-01-09T19:42:22.498Z,56.10
2023-01-09T19:44:50.236Z,53.20
2023-01-09T19:47:18.183Z,52.90
2023-01-09T19:49:46.494Z,55.60
2023-01-09T19:52:14.796Z,53.58
2023-01-09T19:54:42.531Z,58.20
2023-01-09T19:57:10.482Z,52.90
2023-01-09T19:59:40.015Z,56.15
2023-01-09T20:02:11.029Z,59.72
2023-01-09T20:04:38.879Z,55.28
2023-01-09T20:07:07.300Z,55.83
2023-01-09T20:09:35.052Z,56.92
2023-01-09T20:12:05.290Z,54.83
2023-01-09T20:14:36.510Z,54.35
2023-01-09T20:17:04.766Z,57.28
2023-01-09T20:19:33.233Z,54.92
2023-01-09T20:22:01.594Z,56.60
2023-01-09T20:24:29.518Z,50.42
2023-01-09T20:26:57.443Z,53.22
2023-01-09T20:29:25.664Z,49.40
2023-01-09T20:31:53.679Z,52.80
2023-01-09T20:34:21.356Z,52.38
2023-01-09T20:36:49.448Z,52.83
2023-01-09T20:39:17.184Z,50.45
2023-01-09T20:41:45.450Z,51.20
2023-01-09T20:44:14.542Z,52.83
2023-01-09T20:46:47.477Z,53.53
2023-01-09T20:49:18.453Z,53.47
2023-01-09T20:51:49.306Z,57.40
2023-01-09T20:54:18.426Z,51.28
2023-01-09T20:56:46.287Z,55.25
2023-01-09T20:59:23.111Z,52.83
2023-01-09T21:01:51.474Z,55.92
2023-01-09T21:04:19.637Z,53.70
2023-01-09T21:06:49.781Z,50.60
2023-01-09T21:09:18.439Z,53.08
2023-01-09T21:11:46.476Z,51.47
2023-01-09T21:14:14.171Z,53.03
2023-01-09T21:16:45.512Z,58.30
2023-01-09T21:19:19.592Z,57.45
2023-01-09T21:21:47.554Z,59.08
2023-01-09T21:24:15.316Z,53.55
2023-01-09T21:26:44.457Z,50.10
2023-01-09T21:29:13.663Z,50.80
2023-01-09T21:31:44.153Z,51.80
2023-01-09T21:34:14.840Z,51.83
2023-01-09T21:36:45.000Z,51.60
2023-01-09T21:39:12.808Z,52.03
2023-01-09T21:41:59.479Z,54.15
2023-01-09T21:44:45.986Z,57.17
2023-01-09T21:47:14.162Z,56.17
2023-01-09T21:49:43.535Z,56.63
2023-01-09T21:52:13.081Z,56.75
2023-01-09T21:54:41.799Z,58.35
2023-01-09T21:57:10.115Z,55.05
2023-01-09T21:59:37.796Z,60.80
2023-01-09T22:02:05.747Z,61.15
2023-01-09T22:04:33.621Z,57.13
2023-01-09T22:07:01.650Z,59.65
2023-01-09T22:09:29.458Z,60.95
2023-01-09T22:11:57.816Z,62.03
2023-01-09T22:14:25.467Z,61.53
2023-01-09T22:16:53.528Z,59.38
2023-01-09T22:19:21.222Z,61.92
2023-01-09T22:21:49.580Z,63.40
2023-01-09T22:24:18.815Z,61.08
2023-01-09T22:26:47.579Z,62.00
2023-01-09T22:29:16.375Z,60.53
2023-01-09T22:31:44.581Z,66.88
2023-01-09T22:34:17.313Z,70.65
2023-01-09T22:36:46.638Z,67.65
2023-01-09T22:39:16.245Z,73.45
2023-01-09T22:41:44.878Z,68.05
2023-01-09T22:44:13.189Z,68.38
2023-01-09T22:46:41.113Z,68.82
2023-01-09T22:49:12.136Z,66.80
2023-01-09T22:51:40.565Z,66.05
2023-01-09T22:54:08.384Z,71.55
2023-01-09T22:56:36.525Z,67.07
2023-01-09T22:59:04.385Z,70.72
2023-01-09T23:01:32.371Z,65.95
2023-01-09T23:04:00.046Z,66.00
2023-01-09T23:06:27.942Z,70.68
2023-01-09T23:08:55.665Z,69.72
2023-01-09T23:11:47.271Z,66.13
2023-01-09T23:14:15.317Z,62.92
2023-01-09T23:16:43.474Z,66.90
2023-01-09T23:19:16.904Z,60.58
2023-01-09T23:21:45.623Z,63.00
2023-01-09T23:24:15.521Z,59.30
2023-01-09T23:26:44.706Z,64.18
2023-01-09T23:29:13.430Z,66.68
2023-01-09T23:31:41.746Z,66.65
2023-01-09T23:34:12.868Z,66.20
2023-01-09T23:36:41.208Z,64.38
2023-01-09T23:39:10.151Z,60.30
2023-01-09T23:41:57.035Z,69.28
2023-01-09T23:44:24.938Z,59.28
2023-01-09T23:46:53.433Z,58.80
2023-01-09T23:49:21.192Z,65.45
2023-01-09T23:51:49.101Z,61.25
2023-01-09T23:54:17.749Z,64.72
2023-01-09T23:56:45.735Z,60.42
2023-01-09T23:59:14.654Z,62.92
